Time;durP1;ratioP1;P1;durP2;ratioP2;P2;SDS_P1;SDS_P2;PMS_P1;PMS_P2;Temp;Humidity;BMP_temperature;BMP_pressure;BME280_temperature;BME280_humidity;BME280_pressure;Samples;Min_cycle;Max_cycle;Signal;HPM_P1;HPM_P2
2023/10/10 00:02:17;;;;;;;10.50;7.13;;;16.30;99.90;;;;;;4965290;28;20054;-57
2023/10/10 00:04:43;;;;;;;9.30;6.88;;;16.30;99.90;;;;;;4968075;28;20046;-54
2023/10/10 00:07:09;;;;;;;10.02;7.72;;;16.20;99.90;;;;;;4963330;28;20047;-56
2023/10/10 00:09:35;;;;;;;9.68;7.18;;;16.30;99.90;;;;;;4952062;28;20046;-58
2023/10/10 00:12:03;;;;;;;11.70;6.80;;;16.30;99.90;;;;;;4968335;28;20035;-57
2023/10/10 00:14:29;;;;;;;11.48;7.47;;;16.30;99.90;;;;;;4965905;28;20051;-57
2023/10/10 00:16:55;;;;;;;11.73;7.90;;;16.30;99.90;;;;;;4965727;28;20053;-58
2023/10/10 00:19:30;;;;;;;12.68;7.30;;;16.30;99.90;;;;;;4966964;28;20043;-55
2023/10/10 00:21:56;;;;;;;13.27;7.80;;;16.30;99.90;;;;;;4963461;28;20058;-56
2023/10/10 00:24:30;;;;;;;8.35;6.38;;;16.30;99.90;;;;;;4949174;28;20047;-56
2023/10/10 00:26:58;;;;;;;11.32;7.68;;;16.30;99.90;;;;;;4965738;28;20047;-57
2023/10/10 00:29:26;;;;;;;11.02;6.47;;;16.30;99.90;;;;;;4968314;28;20051;-56
2023/10/10 00:31:56;;;;;;;7.72;6.20;;;16.30;99.90;;;;;;4961490;28;20085;-57
2023/10/10 00:34:25;;;;;;;8.48;6.38;;;16.30;99.90;;;;;;4963549;28;20046;-56
2023/10/10 00:36:51;;;;;;;10.50;6.47;;;16.30;99.90;;;;;;4963461;28;20101;-56
2023/10/10 00:41:51;;;;;;;10.95;7.63;;;16.30;99.90;;;;;;4963935;28;20078;-57
2023/10/10 00:44:19;;;;;;;9.27;5.90;;;16.30;99.90;;;;;;4966861;28;20465;-57
2023/10/10 00:46:53;;;;;;;8.85;6.38;;;16.20;99.90;;;;;;4951930;28;20141;-58
2023/10/10 00:49:25;;;;;;;8.93;5.07;;;16.20;99.90;;;;;;4964402;28;20047;-58
2023/10/10 00:51:56;;;;;;;10.88;6.68;;;16.20;99.90;;;;;;4952471;28;20047;-56
2023/10/10 00:56:56;;;;;;;13.48;6.47;;;16.20;99.90;;;;;;4969489;28;20058;-56
2023/10/10 01:01:55;;;;;;;10.70;6.40;;;16.20;99.90;;;;;;4962980;28;20050;-57
2023/10/10 01:04:35;;;;;;;9.10;6.10;;;16.20;99.90;;;;;;4967711;28;20469;-57
2023/10/10 01:07:18;;;;;;;9.23;6.18;;;16.20;99.90;;;;;;4946877;28;20683;-56
2023/10/10 01:09:56;;;;;;;9.32;5.32;;;16.20;99.90;;;;;;4965046;28;20061;-55
2023/10/10 01:12:28;;;;;;;11.52;6.30;;;16.20;99.90;;;;;;4967304;28;20532;-55
2023/10/10 01:14:54;;;;;;;9.93;5.65;;;16.20;99.90;;;;;;4965822;28;20030;-56
2023/10/10 01:17:30;;;;;;;14.25;6.93;;;16.10;99.90;;;;;;4966414;28;20074;-55
2023/10/10 01:20:17;;;;;;;10.20;5.75;;;16.10;99.90;;;;;;4935808;28;20394;-57
2023/10/10 01:22:51;;;;;;;8.63;5.88;;;16.10;99.90;;;;;;4966719;28;20051;-58
2023/10/10 01:27:58;;;;;;;7.30;5.20;;;16.00;99.90;;;;;;4966415;28;20403;-57
2023/10/10 01:35:59;;;;;;;9.02;5.35;;;15.90;99.90;;;;;;4960337;28;20059;-58
2023/10/10 01:38:55;;;;;;;10.23;6.65;;;15.90;99.90;;;;;;4966648;28;20046;-58
2023/10/10 01:41:38;;;;;;;12.93;6.68;;;15.90;99.90;;;;;;4948176;28;20100;-56
2023/10/10 01:44:17;;;;;;;11.57;6.85;;;15.80;99.90;;;;;;4966876;28;20046;-56
2023/10/10 01:46:43;;;;;;;17.90;6.82;;;15.80;99.90;;;;;;4958839;28;20050;-54
2023/10/10 01:49:52;;;;;;;9.05;6.00;;;15.70;99.90;;;;;;4962337;28;20059;-58
2023/10/10 01:51:58;;;;;;;9.32;6.88;;;15.70;99.90;;;;;;4961967;28;20411;-58
2023/10/10 01:54:34;;;;;;;9.45;6.38;;;15.70;99.90;;;;;;4962596;28;20042;-56
2023/10/10 01:57:00;;;;;;;12.98;7.03;;;15.70;99.90;;;;;;4963802;28;20039;-58
2023/10/10 01:59:35;;;;;;;10.75;7.40;;;15.70;99.90;;;;;;4966999;28;20104;-55
2023/10/10 02:02:07;;;;;;;18.95;7.55;;;15.60;99.90;;;;;;4945892;28;20554;-57
2023/10/10 02:04:35;;;;;;;10.90;7.15;;;15.60;99.90;;;;;;4965390;28;20061;-58
2023/10/10 02:07:06;;;;;;;11.60;7.22;;;15.70;99.90;;;;;;4962427;28;20078;-58
2023/10/10 02:09:35;;;;;;;16.85;8.40;;;15.70;99.90;;;;;;4964640;28;20438;-57
2023/10/10 02:12:16;;;;;;;12.15;7.18;;;15.70;99.90;;;;;;4933830;28;20557;-57
2023/10/10 02:14:43;;;;;;;10.15;7.60;;;15.70;99.90;;;;;;4964594;28;20566;-58
2023/10/10 02:17:26;;;;;;;9.60;7.03;;;15.80;99.90;;;;;;4962846;28;20113;-57
2023/10/10 02:22:50;;;;;;;9.10;6.45;;;15.80;99.90;;;;;;4965908;28;20050;-58
2023/10/10 02:27:55;;;;;;;10.73;7.80;;;15.80;99.90;;;;;;4952906;28;20042;-57
2023/10/10 02:30:37;;;;;;;13.30;7.75;;;15.80;99.90;;;;;;4949890;28;20188;-57
2023/10/10 02:35:56;;;;;;;13.60;7.97;;;15.80;99.90;;;;;;4965809;28;20399;-56
2023/10/10 02:38:54;;;;;;;12.10;8.30;;;15.80;99.90;;;;;;4966201;28;20038;-58
2023/10/10 02:44:09;;;;;;;12.43;7.70;;;15.80;99.90;;;;;;4965458;28;20554;-58
2023/10/10 02:46:40;;;;;;;13.65;7.88;;;15.80;99.90;;;;;;4950137;28;20251;-57
2023/10/10 02:49:46;;;;;;;14.30;9.43;;;15.80;99.90;;;;;;4964315;28;20046;-56
2023/10/10 02:52:06;;;;;;;16.00;9.15;;;15.80;99.90;;;;;;4963117;28;20053;-56
2023/10/10 02:54:34;;;;;;;14.77;9.02;;;15.80;99.90;;;;;;4962054;28;20049;-57
2023/10/10 02:59:59;;;;;;;16.60;9.48;;;15.80;99.90;;;;;;4964636;28;20418;-58
2023/10/10 03:02:30;;;;;;;12.02;8.98;;;15.90;99.90;;;;;;4964314;28;20083;-56
2023/10/10 03:05:06;;;;;;;16.20;9.93;;;15.80;99.90;;;;;;4963899;28;20039;-57
2023/10/10 03:07:33;;;;;;;17.92;8.93;;;15.90;99.90;;;;;;4962213;28;20117;-57
2023/10/10 03:12:43;;;;;;;13.13;8.75;;;15.90;99.90;;;;;;4966316;28;20046;-56
2023/10/10 03:15:15;;;;;;;11.60;8.73;;;15.90;99.90;;;;;;4969599;28;20065;-56
2023/10/10 03:18:54;;;;;;;12.98;8.80;;;15.90;99.90;;;;;;4968322;28;20473;-57
2023/10/10 03:26:03;;;;;;;13.20;9.80;;;15.90;99.90;;;;;;4968185;28;20051;-60
2023/10/10 03:28:33;;;;;;;12.73;9.65;;;15.90;99.90;;;;;;4968565;28;20042;-60
2023/10/10 05:25:13;;;;;;;;;;;15.70;99.90;;;;;;4963613;28;20050;-60
2023/10/10 05:27:42;;;;;;;36.83;21.95;;;15.70;99.90;;;;;;4967471;28;20446;-60
2023/10/10 05:30:23;;;;;;;47.95;26.63;;;15.70;99.90;;;;;;4966871;28;20114;-60
2023/10/10 05:33:02;;;;;;;36.50;21.92;;;15.70;99.90;;;;;;4950076;28;20087;-60
2023/10/10 05:35:33;;;;;;;39.95;24.48;;;15.70;99.90;;;;;;4965979;28;20470;-58
2023/10/10 05:38:04;;;;;;;37.03;23.45;;;15.70;99.90;;;;;;4965496;28;20038;-58
2023/10/10 05:40:33;;;;;;;39.47;25.65;;;15.70;99.90;;;;;;4968794;28;20526;-58
2023/10/10 05:43:03;;;;;;;44.88;25.65;;;15.70;99.90;;;;;;4967067;28;20051;-56
2023/10/10 05:45:29;;;;;;;44.78;27.13;;;15.70;99.90;;;;;;4966541;28;20054;-56
2023/10/10 05:47:55;;;;;;;38.83;25.45;;;15.70;99.90;;;;;;4966164;28;20585;-57
2023/10/10 05:50:22;;;;;;;39.25;25.38;;;15.70;99.90;;;;;;4963920;28;20057;-58
2023/10/10 05:52:51;;;;;;;35.30;23.13;;;15.70;99.90;;;;;;4966468;28;20435;-57
2023/10/10 05:55:17;;;;;;;44.05;25.42;;;15.70;99.90;;;;;;4964961;28;20054;-58
2023/10/10 05:57:43;;;;;;;42.22;25.23;;;15.80;99.90;;;;;;4963886;28;20181;-57
2023/10/10 06:00:10;;;;;;;39.42;24.45;;;15.70;99.90;;;;;;4966872;28;20035;-57
2023/10/10 06:02:44;;;;;;;35.75;23.83;;;15.70;99.90;;;;;;4966741;28;20503;-58
2023/10/10 06:05:09;;;;;;;41.90;25.55;;;15.70;99.90;;;;;;4966508;28;20043;-57
2023/10/10 06:07:45;;;;;;;39.45;25.42;;;15.70;99.90;;;;;;4934480;28;20042;-58
2023/10/10 06:10:15;;;;;;;39.00;24.75;;;15.70;99.90;;;;;;4967031;28;20402;-58
2023/10/10 06:12:47;;;;;;;40.75;25.40;;;15.70;99.90;;;;;;4962362;28;20066;-58
2023/10/10 06:15:17;;;;;;;36.85;24.02;;;15.70;99.90;;;;;;4966342;28;20239;-57
2023/10/10 06:18:08;;;;;;;42.97;26.20;;;15.70;99.90;;;;;;4963436;28;20042;-58
2023/10/10 06:20:41;;;;;;;34.28;24.73;;;15.80;99.90;;;;;;4963761;28;20043;-57
2023/10/10 06:23:20;;;;;;;31.48;21.73;;;15.80;99.90;;;;;;4965904;28;20058;-57
2023/10/10 06:25:47;;;;;;;37.42;24.58;;;15.80;99.90;;;;;;4963983;28;20098;-58
2023/10/10 06:28:26;;;;;;;38.45;24.98;;;15.80;99.90;;;;;;4950503;28;20434;-57
2023/10/10 06:30:53;;;;;;;42.13;26.10;;;15.80;99.90;;;;;;4963794;28;20059;-56
2023/10/10 06:33:28;;;;;;;43.95;26.50;;;15.80;99.90;;;;;;4950184;28;20414;-57
2023/10/10 06:41:42;;;;;;;37.95;24.33;;;15.90;99.90;;;;;;4966176;28;20047;-58
2023/10/10 06:44:14;;;;;;;37.70;25.48;;;15.90;99.90;;;;;;4949305;28;20491;-57
2023/10/10 06:46:48;;;;;;;40.80;25.02;;;15.90;99.90;;;;;;4948244;28;20049;-56
2023/10/10 06:49:14;;;;;;;38.22;25.25;;;15.90;99.90;;;;;;4950702;28;20416;-57
2023/10/10 06:51:40;;;;;;;43.17;26.27;;;15.90;99.90;;;;;;4969692;28;20502;-56
2023/10/10 06:54:08;;;;;;;36.38;25.65;;;15.90;99.90;;;;;;4968766;28;20073;-56
2023/10/10 06:59:26;;;;;;;43.13;28.83;;;16.00;99.90;;;;;;4967578;28;20264;-56
2023/10/10 07:01:59;;;;;;;41.05;26.73;;;16.00;99.90;;;;;;4969586;28;20186;-57
2023/10/10 07:04:27;;;;;;;45.65;29.10;;;16.00;99.90;;;;;;4968910;28;20043;-57
2023/10/10 07:06:55;;;;;;;36.10;26.83;;;16.00;99.90;;;;;;4967110;28;20059;-57
2023/10/10 07:09:30;;;;;;;38.33;24.90;;;16.10;99.90;;;;;;4973491;28;20285;-58
2023/10/10 07:11:56;;;;;;;34.97;26.48;;;16.10;99.90;;;;;;4969242;28;20429;-56
2023/10/10 07:14:26;;;;;;;37.90;25.85;;;16.10;99.90;;;;;;4962291;28;20039;-56
2023/10/10 07:16:56;;;;;;;41.65;26.35;;;16.10;99.90;;;;;;4963724;28;20050;-58
2023/10/10 07:19:31;;;;;;;36.22;24.88;;;16.10;99.90;;;;;;4948741;28;20502;-57
2023/10/10 07:21:59;;;;;;;37.83;25.83;;;16.10;99.90;;;;;;4968735;28;20057;-56
2023/10/10 07:24:40;;;;;;;44.70;27.35;;;16.10;99.90;;;;;;4968889;28;20092;-58
2023/10/10 07:27:11;;;;;;;37.83;26.98;;;16.20;99.90;;;;;;4969067;28;20046;-57
2023/10/10 07:32:17;;;;;;;41.47;28.90;;;16.30;99.90;;;;;;4968822;28;20236;-57
2023/10/10 07:34:49;;;;;;;47.67;29.95;;;16.30;99.90;;;;;;4951550;28;20415;-58
2023/10/10 07:37:16;;;;;;;45.67;31.00;;;16.40;99.90;;;;;;4968284;28;20250;-58
2023/10/10 07:42:27;;;;;;;45.08;30.35;;;16.50;99.90;;;;;;4970031;28;20555;-57
2023/10/10 07:45:03;;;;;;;47.67;30.60;;;16.60;99.90;;;;;;4969272;28;20046;-58
2023/10/10 07:47:32;;;;;;;51.33;32.75;;;16.60;99.90;;;;;;4967893;28;20328;-57
2023/10/10 07:50:08;;;;;;;48.35;32.08;;;16.60;99.90;;;;;;4967837;28;20054;-58
2023/10/10 07:52:35;;;;;;;50.08;34.05;;;16.60;99.90;;;;;;4969052;28;20442;-57
2023/10/10 07:55:04;;;;;;;60.72;35.65;;;16.70;99.90;;;;;;4952127;28;20043;-56
2023/10/10 07:57:55;;;;;;;51.40;34.33;;;16.70;99.90;;;;;;4969046;28;20042;-56
2023/10/10 08:00:26;;;;;;;53.05;35.17;;;16.80;99.90;;;;;;4967642;28;20042;-58
2023/10/10 08:02:53;;;;;;;50.25;34.08;;;16.90;99.90;;;;;;4969325;28;20307;-58
2023/10/10 08:05:19;;;;;;;48.47;33.85;;;16.90;99.90;;;;;;4965394;28;20042;-57
2023/10/10 08:07:49;;;;;;;50.80;33.08;;;17.00;99.90;;;;;;4967831;28;20074;-57
2023/10/10 08:11:05;;;;;;;52.95;34.20;;;17.00;99.90;;;;;;4950825;28;20042;-57
2023/10/10 08:13:01;;;;;;;48.00;33.83;;;17.10;99.90;;;;;;4960008;28;20065;-56
2023/10/10 08:15:27;;;;;;;52.10;34.40;;;17.20;99.90;;;;;;4968438;28;20027;-56
2023/10/10 08:17:54;;;;;;;48.97;33.97;;;17.20;99.90;;;;;;4967876;28;20055;-56
2023/10/10 08:20:33;;;;;;;45.25;32.45;;;17.30;99.90;;;;;;4965233;28;20045;-58
2023/10/10 08:23:01;;;;;;;45.00;32.80;;;17.20;99.90;;;;;;4963859;28;20038;-57
2023/10/10 08:25:28;;;;;;;46.30;33.15;;;17.30;99.90;;;;;;4962247;28;20039;-58
2023/10/10 08:27:55;;;;;;;44.97;31.85;;;17.30;99.90;;;;;;4966467;28;20058;-58
2023/10/10 08:30:25;;;;;;;44.67;32.60;;;17.30;99.90;;;;;;4968250;28;20410;-58
2023/10/10 08:33:02;;;;;;;49.00;33.08;;;17.30;99.90;;;;;;4962001;28;20054;-58
2023/10/10 08:35:29;;;;;;;50.20;33.00;;;17.30;99.90;;;;;;4967775;28;20788;-58
2023/10/10 08:37:56;;;;;;;46.25;32.58;;;17.20;99.90;;;;;;4968265;28;20047;-58
2023/10/10 08:40:23;;;;;;;47.53;34.22;;;17.20;99.90;;;;;;4967545;28;20094;-56
2023/10/10 08:42:50;;;;;;;50.13;34.05;;;17.30;99.90;;;;;;4967400;28;20059;-57
2023/10/10 08:45:22;;;;;;;44.83;32.80;;;17.30;99.90;;;;;;4965971;28;20113;-56
2023/10/10 08:47:58;;;;;;;45.28;33.05;;;17.40;99.90;;;;;;4982524;28;20054;-59
2023/10/10 08:50:25;;;;;;;48.83;34.22;;;17.40;99.90;;;;;;4963962;28;20402;-57
2023/10/10 08:52:52;;;;;;;48.60;34.33;;;17.40;99.90;;;;;;4966045;28;20085;-57
2023/10/10 08:55:26;;;;;;;43.80;32.40;;;17.50;99.90;;;;;;4967496;28;20423;-57
2023/10/10 08:57:55;;;;;;;45.90;33.53;;;17.50;99.90;;;;;;4967672;28;20113;-57
2023/10/10 09:00:22;;;;;;;48.95;34.17;;;17.50;99.90;;;;;;4963786;28;20051;-57
2023/10/10 09:02:49;;;;;;;47.60;34.25;;;17.60;99.90;;;;;;4967965;28;20122;-59
2023/10/10 09:05:15;;;;;;;47.10;35.88;;;17.60;99.90;;;;;;4966229;28;20113;-56
2023/10/10 09:07:45;;;;;;;46.88;33.10;;;17.60;99.90;;;;;;4967202;28;20054;-58
2023/10/10 09:10:15;;;;;;;46.33;35.40;;;17.70;99.90;;;;;;4934743;28;20057;-58
2023/10/10 09:12:55;;;;;;;54.92;36.35;;;17.70;99.90;;;;;;4968317;28;20034;-56
2023/10/10 09:15:21;;;;;;;50.33;36.47;;;17.90;99.90;;;;;;4962519;28;20043;-58
2023/10/10 09:17:48;;;;;;;48.75;35.20;;;17.90;99.90;;;;;;4961719;28;20043;-56
2023/10/10 09:20:28;;;;;;;53.20;36.70;;;18.00;99.90;;;;;;4965573;28;20226;-56
2023/10/10 09:23:15;;;;;;;51.50;35.63;;;18.10;99.90;;;;;;4950751;28;20479;-58
2023/10/10 09:25:48;;;;;;;46.90;34.17;;;18.10;99.90;;;;;;4967338;28;20125;-57
2023/10/10 09:28:16;;;;;;;51.20;35.73;;;18.20;99.90;;;;;;4964965;28;20385;-57
2023/10/10 09:31:14;;;;;;;48.13;37.00;;;18.20;99.90;;;;;;4965988;28;20406;-57
2023/10/10 09:33:45;;;;;;;46.60;33.90;;;18.30;99.90;;;;;;4960401;28;20051;-58
2023/10/10 09:36:19;;;;;;;54.42;36.47;;;18.30;99.90;;;;;;4949517;28;20122;-58
2023/10/10 09:38:47;;;;;;;49.72;37.10;;;18.30;99.90;;;;;;4966564;28;20108;-57
2023/10/10 09:41:27;;;;;;;44.58;32.85;;;18.30;99.90;;;;;;4965975;28;20530;-57
2023/10/10 09:49:46;;;;;;;44.90;32.22;;;18.40;99.90;;;;;;4966425;28;20126;-58
2023/10/10 09:55:38;;;;;;;45.15;33.45;;;18.50;99.90;;;;;;4959940;28;20102;-57
2023/10/10 09:58:01;;;;;;;49.35;33.10;;;18.60;99.90;;;;;;4966529;28;20055;-57
2023/10/10 10:09:38;;;;;;;46.40;34.75;;;19.00;99.90;;;;;;4965512;28;20510;-57
2023/10/10 10:12:30;;;;;;;48.13;33.67;;;19.20;99.90;;;;;;4967062;28;20070;-57
2023/10/10 10:15:16;;;;;;;43.05;32.50;;;19.30;99.90;;;;;;4966492;28;20051;-58
2023/10/10 10:18:13;;;;;;;45.75;32.10;;;19.30;99.90;;;;;;4964441;28;20043;-58
2023/10/10 10:23:27;;;;;;;39.58;30.65;;;19.30;99.90;;;;;;4969856;28;20051;-56
2023/10/10 10:26:10;;;;;;;43.50;30.63;;;19.30;99.90;;;;;;4950847;28;20514;-57
2023/10/10 10:28:37;;;;;;;44.17;31.50;;;19.40;99.90;;;;;;4969700;28;20346;-57
2023/10/10 10:31:16;;;;;;;40.38;29.33;;;19.50;99.90;;;;;;4965559;28;20049;-57
2023/10/10 10:34:02;;;;;;;40.65;25.85;;;19.60;99.90;;;;;;4964180;28;20089;-58
2023/10/10 10:36:29;;;;;;;30.42;24.33;;;19.50;99.90;;;;;;4969483;28;20041;-58
2023/10/10 10:41:59;;;;;;;37.75;25.15;;;19.50;99.90;;;;;;4940719;28;20062;-55
2023/10/10 10:44:53;;;;;;;37.33;26.98;;;19.40;99.90;;;;;;4968936;28;20498;-57
2023/10/10 10:47:46;;;;;;;38.83;25.85;;;19.40;99.90;;;;;;4969478;28;20129;-58
2023/10/10 10:50:42;;;;;;;38.75;26.60;;;19.30;99.90;;;;;;4983655;28;20552;-57
2023/10/10 10:53:30;;;;;;;35.33;25.88;;;19.30;99.90;;;;;;4968628;28;20538;-57
2023/10/10 10:56:37;;;;;;;34.85;24.95;;;19.30;99.90;;;;;;4969677;28;20588;-57
2023/10/10 11:01:27;;;;;;;36.95;25.52;;;19.60;99.90;;;;;;4968915;28;20050;-56
2023/10/10 11:03:55;;;;;;;37.13;25.52;;;19.70;99.90;;;;;;4969618;28;20145;-58
2023/10/10 11:06:24;;;;;;;38.28;26.77;;;19.80;99.90;;;;;;4967609;28;20508;-56
2023/10/10 11:16:46;;;;;;;32.00;24.67;;;20.10;99.90;;;;;;4960120;28;20056;-57
2023/10/10 11:21:53;;;;;;;34.35;24.60;;;20.20;99.90;;;;;;4962547;28;20055;-58
2023/10/10 11:24:25;;;;;;;35.03;25.27;;;20.40;99.90;;;;;;4950494;28;20525;-57
2023/10/10 11:29:42;;;;;;;31.65;24.30;;;20.70;99.90;;;;;;4967563;28;20117;-57
2023/10/10 11:32:11;;;;;;;36.53;24.52;;;20.90;99.90;;;;;;4951262;28;20078;-57
2023/10/10 11:34:46;;;;;;;34.60;23.15;;;21.00;99.90;;;;;;4966105;28;20051;-58
2023/10/10 11:37:21;;;;;;;;;;;21.00;99.90;;;;;;4966345;28;20418;-58
2023/10/10 11:43:11;;;;;;;32.40;24.33;;;21.30;99.90;;;;;;4968474;28;20065;-58
2023/10/10 11:45:39;;;;;;;31.08;24.13;;;21.40;99.90;;;;;;4952723;28;20532;-58
2023/10/10 11:48:12;;;;;;;36.22;24.05;;;21.50;99.90;;;;;;4969409;28;20742;-58
2023/10/10 11:50:48;;;;;;;32.22;22.80;;;21.60;99.90;;;;;;4969777;28;20516;-58
2023/10/10 11:53:19;;;;;;;33.63;23.40;;;21.60;99.90;;;;;;4968203;28;20035;-58
2023/10/10 11:55:47;;;;;;;32.83;23.85;;;21.60;99.90;;;;;;4954810;28;20133;-58
2023/10/10 11:58:35;;;;;;;32.58;22.10;;;21.50;99.90;;;;;;4969666;28;20129;-58
2023/10/10 12:01:10;;;;;;;31.70;23.65;;;21.50;99.90;;;;;;4969400;28;20031;-57
2023/10/10 12:06:17;;;;;;;30.88;22.65;;;21.50;99.90;;;;;;4969951;28;20050;-55
2023/10/10 12:08:45;;;;;;;32.35;23.02;;;21.50;99.90;;;;;;4965931;28;20047;-59
2023/10/10 12:11:12;;;;;;;30.58;22.88;;;21.50;99.90;;;;;;4968380;28;20043;-57
2023/10/10 12:13:38;;;;;;;34.13;22.27;;;21.40;99.90;;;;;;4952271;28;20085;-56
2023/10/10 12:16:13;;;;;;;31.08;23.17;;;21.40;99.90;;;;;;4970210;28;20046;-57
2023/10/10 12:18:54;;;;;;;34.70;22.58;;;21.30;99.90;;;;;;4969596;28;20074;-57
2023/10/10 12:21:21;;;;;;;30.98;23.17;;;21.20;99.90;;;;;;4950725;28;20039;-58
2023/10/10 12:23:47;;;;;;;34.38;23.52;;;21.10;99.90;;;;;;4964280;28;20050;-57
2023/10/10 12:26:13;;;;;;;34.92;23.85;;;21.10;99.90;;;;;;4967410;28;20054;-56
2023/10/10 12:28:39;;;;;;;33.33;22.35;;;21.10;99.90;;;;;;4970264;28;20077;-57
2023/10/10 12:31:08;;;;;;;31.65;22.33;;;21.10;99.90;;;;;;4968495;28;20193;-56
2023/10/10 12:33:36;;;;;;;31.00;22.17;;;21.10;99.90;;;;;;4951644;28;20122;-58
2023/10/10 12:36:09;;;;;;;33.95;24.08;;;21.00;99.90;;;;;;4950793;28;20035;-56
2023/10/10 12:38:35;;;;;;;31.15;23.55;;;21.00;99.90;;;;;;4949465;28;20046;-57
2023/10/10 12:41:01;;;;;;;37.47;25.85;;;21.10;99.90;;;;;;4963635;28;20612;-56
2023/10/10 12:43:26;;;;;;;30.58;22.48;;;21.10;99.90;;;;;;4959607;28;20047;-57
2023/10/10 12:45:54;;;;;;;41.40;26.20;;;21.20;99.90;;;;;;4969587;28;20411;-58
2023/10/10 12:48:20;;;;;;;36.13;25.85;;;21.20;99.90;;;;;;4967424;28;20433;-57
2023/10/10 12:50:50;;;;;;;39.08;26.50;;;21.10;99.90;;;;;;4967136;28;20037;-57
2023/10/10 12:53:20;;;;;;;30.73;23.80;;;21.00;99.90;;;;;;4948587;28;20247;-57
2023/10/10 12:55:51;;;;;;;38.40;26.92;;;20.90;99.90;;;;;;4967622;28;20061;-57
2023/10/10 12:58:24;;;;;;;37.83;25.95;;;20.80;99.90;;;;;;4966682;28;20055;-57
2023/10/10 13:00:52;;;;;;;37.28;26.33;;;20.70;99.90;;;;;;4966388;28;20030;-58
2023/10/10 13:03:29;;;;;;;34.88;26.95;;;20.70;99.90;;;;;;4955462;28;20042;-58
2023/10/10 13:06:02;;;;;;;36.95;26.90;;;20.70;99.90;;;;;;4967774;28;20043;-58
2023/10/10 13:08:48;;;;;;;36.45;28.90;;;20.70;99.90;;;;;;4962605;28;20463;-59
2023/10/10 13:11:15;;;;;;;35.67;27.88;;;20.70;99.90;;;;;;4966190;28;20461;-58
2023/10/10 13:14:17;;;;;;;38.90;28.80;;;20.60;99.90;;;;;;4951070;28;20050;-58
2023/10/10 13:19:09;;;;;;;38.03;28.65;;;20.80;99.90;;;;;;4965952;28;20039;-58
2023/10/10 13:21:36;;;;;;;37.83;29.58;;;20.90;99.90;;;;;;4968234;28;20101;-56
2023/10/10 13:24:09;;;;;;;40.03;30.02;;;21.00;99.90;;;;;;4979425;28;20042;-60
2023/10/10 13:26:40;;;;;;;35.75;29.77;;;20.90;99.90;;;;;;4960096;28;20073;-60
2023/10/10 13:29:09;;;;;;;43.70;32.63;;;20.80;99.90;;;;;;4963022;28;20042;-57
2023/10/10 13:31:35;;;;;;;39.00;29.95;;;20.80;99.90;;;;;;4966169;28;20442;-57
2023/10/10 13:34:01;;;;;;;43.10;30.98;;;20.80;99.90;;;;;;4965688;28;20045;-57
2023/10/10 13:36:27;;;;;;;42.80;32.72;;;20.80;99.90;;;;;;4960589;28;20039;-59
2023/10/10 13:38:58;;;;;;;43.67;32.10;;;20.70;99.90;;;;;;4965947;28;20705;-59
2023/10/10 13:41:28;;;;;;;42.15;32.13;;;20.70;99.90;;;;;;4967966;28;20106;-57
2023/10/10 13:43:59;;;;;;;43.47;33.90;;;20.60;99.90;;;;;;4953097;28;20137;-56
2023/10/10 13:46:27;;;;;;;43.13;34.47;;;20.60;99.90;;;;;;4966908;28;20046;-58
2023/10/10 13:48:53;;;;;;;43.00;33.63;;;20.60;99.90;;;;;;4966959;28;20062;-59
2023/10/10 13:51:19;;;;;;;48.63;36.58;;;20.60;99.90;;;;;;4965486;28;20119;-57
2023/10/10 13:53:46;;;;;;;50.17;38.17;;;20.50;99.90;;;;;;4966965;28;20047;-59
2023/10/10 13:56:16;;;;;;;44.97;35.92;;;20.60;99.90;;;;;;4965376;28;20564;-57
2023/10/10 13:58:48;;;;;;;50.78;38.45;;;20.60;99.90;;;;;;4967724;28;20506;-57
2023/10/10 14:01:18;;;;;;;51.67;38.20;;;20.60;99.90;;;;;;4966335;28;20030;-59
2023/10/10 14:03:48;;;;;;;50.78;39.83;;;20.50;99.90;;;;;;4952698;28;20107;-56
2023/10/10 14:06:34;;;;;;;52.60;39.40;;;20.50;99.90;;;;;;4966893;28;20043;-57
2023/10/10 14:09:03;;;;;;;46.40;36.72;;;20.50;99.90;;;;;;4964190;28;20533;-58
2023/10/10 14:11:32;;;;;;;49.45;37.90;;;20.50;99.90;;;;;;4967513;28;20062;-59
2023/10/10 14:13:59;;;;;;;49.30;37.97;;;20.50;99.90;;;;;;4967668;28;20471;-58
2023/10/10 14:16:24;;;;;;;49.42;40.08;;;20.50;99.90;;;;;;4947316;28;20036;-59
2023/10/10 14:18:50;;;;;;;48.25;36.90;;;20.50;99.90;;;;;;4968718;28;20051;-58
2023/10/10 14:21:27;;;;;;;52.20;40.15;;;20.50;99.90;;;;;;4966920;28;20078;-58
2023/10/10 14:24:13;;;;;;;48.95;37.80;;;20.50;99.90;;;;;;4968129;28;20504;-59
2023/10/10 14:26:43;;;;;;;48.92;38.50;;;20.50;99.90;;;;;;4967219;28;20045;-58
2023/10/10 14:29:12;;;;;;;49.10;38.97;;;20.50;99.90;;;;;;4967414;28;20125;-58
2023/10/10 14:31:45;;;;;;;53.10;39.00;;;20.50;99.90;;;;;;4968188;28;20093;-59
2023/10/10 14:34:19;;;;;;;46.37;37.87;;;20.50;99.90;;;;;;4967623;28;20047;-60
2023/10/10 14:36:45;;;;;;;47.45;38.42;;;20.50;99.90;;;;;;4963492;28;20821;-60
2023/10/10 14:39:28;;;;;;;53.25;37.88;;;20.50;99.90;;;;;;4966268;28;20039;-59
2023/10/10 14:41:57;;;;;;;45.65;36.30;;;20.50;99.90;;;;;;4950726;28;20442;-58
2023/10/10 14:44:28;;;;;;;47.75;36.08;;;20.40;99.90;;;;;;4965003;28;20042;-59
2023/10/10 14:46:54;;;;;;;49.90;36.42;;;20.30;99.90;;;;;;4966451;28;20047;-59
2023/10/10 14:49:28;;;;;;;50.78;35.58;;;20.30;99.90;;;;;;4950420;28;20150;-58
2023/10/10 14:51:56;;;;;;;47.08;35.42;;;20.30;99.90;;;;;;4966417;28;21107;-59
2023/10/10 14:54:23;;;;;;;45.30;34.38;;;20.20;99.90;;;;;;4965500;28;20051;-58
2023/10/10 14:56:51;;;;;;;45.92;34.03;;;20.20;99.90;;;;;;4967789;28;20490;-59
2023/10/10 14:59:25;;;;;;;49.58;36.50;;;20.10;99.90;;;;;;4966701;28;20083;-59
2023/10/10 15:01:52;;;;;;;43.33;32.70;;;20.10;99.90;;;;;;4967116;28;20089;-56
2023/10/10 15:04:20;;;;;;;46.10;37.30;;;20.10;99.90;;;;;;4981202;28;20398;-59
2023/10/10 15:06:54;;;;;;;48.78;36.45;;;20.10;99.90;;;;;;4964279;28;20046;-59
2023/10/10 15:09:23;;;;;;;46.20;35.03;;;20.00;99.90;;;;;;4965631;28;20034;-58
2023/10/10 15:11:50;;;;;;;42.83;34.05;;;20.00;99.90;;;;;;4970257;28;20053;-58
2023/10/10 15:14:18;;;;;;;48.28;36.17;;;20.00;99.90;;;;;;4953668;28;20085;-56
2023/10/10 15:16:47;;;;;;;46.92;35.97;;;20.00;99.90;;;;;;4969745;28;20050;-59
2023/10/10 15:19:13;;;;;;;47.60;35.28;;;19.90;99.90;;;;;;4971227;28;20054;-58
2023/10/10 15:21:40;;;;;;;44.17;32.88;;;19.90;99.90;;;;;;4972544;28;20046;-59
2023/10/10 15:24:11;;;;;;;44.35;34.13;;;19.90;99.90;;;;;;4952614;28;20047;-58
2023/10/10 15:26:41;;;;;;;43.97;34.13;;;19.90;99.90;;;;;;4975212;28;20063;-57
2023/10/10 15:29:12;;;;;;;47.67;32.30;;;19.90;99.90;;;;;;4984194;28;20113;-58
2023/10/10 15:31:40;;;;;;;45.92;33.03;;;19.80;99.90;;;;;;4968933;28;20045;-57
2023/10/10 15:34:11;;;;;;;43.50;33.63;;;19.80;99.90;;;;;;4967687;28;20549;-58
2023/10/10 15:36:37;;;;;;;48.97;34.13;;;19.80;99.90;;;;;;4970831;28;20537;-59
2023/10/10 15:39:05;;;;;;;41.50;32.10;;;19.80;99.90;;;;;;4954754;28;20038;-59
2023/10/10 15:41:36;;;;;;;45.00;31.77;;;19.80;99.90;;;;;;4969804;28;20081;-58
2023/10/10 15:44:03;;;;;;;46.97;33.20;;;19.70;99.90;;;;;;4970341;28;20050;-58
2023/10/10 15:46:34;;;;;;;42.35;30.52;;;19.80;99.90;;;;;;4953226;28;20078;-58
2023/10/10 15:49:00;;;;;;;44.92;32.22;;;19.70;99.90;;;;;;4968331;28;20054;-56
2023/10/10 15:51:29;;;;;;;45.58;30.90;;;19.70;99.90;;;;;;4968885;28;20498;-58
2023/10/10 15:54:02;;;;;;;40.63;30.42;;;19.70;99.90;;;;;;4963642;28;20043;-58
2023/10/10 15:56:29;;;;;;;39.92;30.15;;;19.70;99.90;;;;;;4967009;28;20054;-58
2023/10/10 15:58:56;;;;;;;39.72;29.50;;;19.70;99.90;;;;;;4968591;28;20042;-60
2023/10/10 16:01:30;;;;;;;40.00;30.30;;;19.70;99.90;;;;;;4953574;28;20085;-59
2023/10/10 16:04:00;;;;;;;40.45;29.45;;;19.70;99.90;;;;;;4966111;28;20194;-59
2023/10/10 16:06:28;;;;;;;42.28;29.65;;;19.60;99.90;;;;;;4964140;28;20438;-59
2023/10/10 16:08:57;;;;;;;35.33;28.20;;;19.60;99.90;;;;;;4965070;28;20051;-59
2023/10/10 16:11:34;;;;;;;39.22;29.25;;;19.60;99.90;;;;;;4969628;28;20038;-58
2023/10/10 16:14:00;;;;;;;36.63;27.42;;;19.60;99.90;;;;;;4952566;28;20078;-59
2023/10/10 16:16:29;;;;;;;40.78;29.33;;;19.50;99.90;;;;;;4969348;28;20042;-58
2023/10/10 16:18:56;;;;;;;36.30;26.67;;;19.50;99.90;;;;;;4968614;28;20046;-57
2023/10/10 16:21:25;;;;;;;35.00;28.95;;;19.50;99.90;;;;;;4952056;28;20046;-59
2023/10/10 16:23:54;;;;;;;34.85;27.90;;;19.50;99.90;;;;;;4967010;28;20057;-59
2023/10/10 16:26:20;;;;;;;35.65;27.42;;;19.40;99.90;;;;;;4964974;28;20505;-60
2023/10/10 16:28:49;;;;;;;34.25;26.88;;;19.40;99.90;;;;;;4968024;28;20034;-59